sensor_id;sensor_type;location;lat;lon;timestamp;P1;durP1;ratioP1;P2;durP2;ratioP2
12363;SDS011;6246;50.826;4.712;2023-01-30T00:01:32;16.73;;;10.37;;
12363;SDS011;6246;50.826;4.712;2023-01-30T00:03:59;19.43;;;10.77;;
12363;SDS011;6246;50.826;4.712;2023-01-30T00:06:25;18.63;;;12.87;;
12363;SDS011;6246;50.826;4.712;2023-01-30T00:08:51;16.00;;;11.50;;
12363;SDS011;6246;50.826;4.712;2023-01-30T00:11:17;16.60;;;12.67;;
12363;SDS011;6246;50.826;4.712;2023-01-30T00:13:44;19.80;;;11.80;;
12363;SDS011;6246;50.826;4.712;2023-01-30T00:16:10;14.47;;;11.07;;
12363;SDS011;6246;50.826;4.712;2023-01-30T00:18:37;18.43;;;11.87;;
12363;SDS011;6246;50.826;4.712;2023-01-30T00:21:04;19.47;;;12.57;;
12363;SDS011;6246;50.826;4.712;2023-01-30T00:23:31;16.97;;;12.27;;
12363;SDS011;6246;50.826;4.712;2023-01-30T00:25:57;18.17;;;12.67;;
12363;SDS011;6246;50.826;4.712;2023-01-30T00:28:23;18.73;;;12.70;;
12363;SDS011;6246;50.826;4.712;2023-01-30T00:30:50;19.17;;;12.07;;
12363;SDS011;6246;50.826;4.712;2023-01-30T00:33:17;17.03;;;11.93;;
12363;SDS011;6246;50.826;4.712;2023-01-30T00:35:44;22.23;;;11.87;;
12363;SDS011;6246;50.826;4.712;2023-01-30T00:38:10;19.27;;;12.87;;
12363;SDS011;6246;50.826;4.712;2023-01-30T00:40:36;18.03;;;12.60;;
12363;SDS011;6246;50.826;4.712;2023-01-30T00:43:02;17.47;;;12.83;;
12363;SDS011;6246;50.826;4.712;2023-01-30T00:45:47;17.23;;;13.43;;
12363;SDS011;6246;50.826;4.712;2023-01-30T00:48:32;16.97;;;12.87;;
12363;SDS011;6246;50.826;4.712;2023-01-30T00:50:58;19.40;;;12.60;;
12363;SDS011;6246;50.826;4.712;2023-01-30T00:53:24;17.67;;;12.70;;
12363;SDS011;6246;50.826;4.712;2023-01-30T00:55:51;17.47;;;12.50;;
12363;SDS011;6246;50.826;4.712;2023-01-30T00:58:17;17.53;;;11.87;;
12363;SDS011;6246;50.826;4.712;2023-01-30T01:00:43;17.77;;;12.23;;
12363;SDS011;6246;50.826;4.712;2023-01-30T01:03:09;15.17;;;12.23;;
12363;SDS011;6246;50.826;4.712;2023-01-30T01:05:35;15.77;;;12.33;;
12363;SDS011;6246;50.826;4.712;2023-01-30T01:08:01;16.93;;;11.90;;
12363;SDS011;6246;50.826;4.712;2023-01-30T01:10:27;15.13;;;11.50;;
12363;SDS011;6246;50.826;4.712;2023-01-30T01:12:53;14.80;;;12.10;;
12363;SDS011;6246;50.826;4.712;2023-01-30T01:15:20;16.17;;;12.03;;
12363;SDS011;6246;50.826;4.712;2023-01-30T01:17:46;19.13;;;12.10;;
12363;SDS011;6246;50.826;4.712;2023-01-30T01:20:13;17.63;;;11.87;;
12363;SDS011;6246;50.826;4.712;2023-01-30T01:22:39;16.57;;;11.63;;
12363;SDS011;6246;50.826;4.712;2023-01-30T01:25:05;18.53;;;12.37;;
12363;SDS011;6246;50.826;4.712;2023-01-30T01:27:31;16.70;;;12.77;;
12363;SDS011;6246;50.826;4.712;2023-01-30T01:29:57;14.37;;;11.57;;
12363;SDS011;6246;50.826;4.712;2023-01-30T01:32:23;16.47;;;12.23;;
12363;SDS011;6246;50.826;4.712;2023-01-30T01:34:49;14.90;;;11.00;;
12363;SDS011;6246;50.826;4.712;2023-01-30T01:37:15;14.93;;;11.57;;
12363;SDS011;6246;50.826;4.712;2023-01-30T01:39:41;12.97;;;10.73;;
12363;SDS011;6246;50.826;4.712;2023-01-30T01:42:28;15.60;;;10.43;;
12363;SDS011;6246;50.826;4.712;2023-01-30T01:44:59;14.63;;;10.37;;
12363;SDS011;6246;50.826;4.712;2023-01-30T01:47:27;16.90;;;11.13;;
12363;SDS011;6246;50.826;4.712;2023-01-30T01:49:53;14.83;;;10.77;;
12363;SDS011;6246;50.826;4.712;2023-01-30T01:52:19;15.10;;;11.17;;
12363;SDS011;6246;50.826;4.712;2023-01-30T01:57:17;16.10;;;11.03;;
12363;SDS011;6246;50.826;4.712;2023-01-30T01:59:45;13.33;;;9.80;;
12363;SDS011;6246;50.826;4.712;2023-01-30T02:02:14;14.93;;;11.67;;
12363;SDS011;6246;50.826;4.712;2023-01-30T02:04:42;20.37;;;12.07;;
12363;SDS011;6246;50.826;4.712;2023-01-30T02:07:29;29.23;;;14.07;;
12363;SDS011;6246;50.826;4.712;2023-01-30T02:09:58;22.80;;;15.23;;
12363;SDS011;6246;50.826;4.712;2023-01-30T02:12:24;27.27;;;15.13;;
12363;SDS011;6246;50.826;4.712;2023-01-30T02:14:50;27.77;;;16.13;;
12363;SDS011;6246;50.826;4.712;2023-01-30T02:17:18;24.20;;;18.50;;
12363;SDS011;6246;50.826;4.712;2023-01-30T02:27:52;22.60;;;19.00;;
12363;SDS011;6246;50.826;4.712;2023-01-30T02:33:19;28.37;;;19.30;;
12363;SDS011;6246;50.826;4.712;2023-01-30T02:35:59;27.87;;;20.83;;
12363;SDS011;6246;50.826;4.712;2023-01-30T02:41:13;24.40;;;21.53;;
12363;SDS011;6246;50.826;4.712;2023-01-30T02:46:24;26.60;;;21.80;;
12363;SDS011;6246;50.826;4.712;2023-01-30T02:48:56;31.87;;;24.37;;
12363;SDS011;6246;50.826;4.712;2023-01-30T02:51:24;27.03;;;21.90;;
12363;SDS011;6246;50.826;4.712;2023-01-30T02:53:52;26.70;;;22.23;;
12363;SDS011;6246;50.826;4.712;2023-01-30T02:56:19;29.47;;;23.27;;
12363;SDS011;6246;50.826;4.712;2023-01-30T02:58:47;29.57;;;23.27;;
12363;SDS011;6246;50.826;4.712;2023-01-30T03:04:22;29.10;;;22.70;;
12363;SDS011;6246;50.826;4.712;2023-01-30T03:09:13;27.23;;;23.33;;
12363;SDS011;6246;50.826;4.712;2023-01-30T03:11:48;29.33;;;23.20;;
12363;SDS011;6246;50.826;4.712;2023-01-30T03:14:25;28.93;;;22.93;;
12363;SDS011;6246;50.826;4.712;2023-01-30T03:16:54;29.07;;;22.70;;
12363;SDS011;6246;50.826;4.712;2023-01-30T03:19:21;31.27;;;24.27;;
12363;SDS011;6246;50.826;4.712;2023-01-30T03:21:47;30.20;;;24.37;;
12363;SDS011;6246;50.826;4.712;2023-01-30T03:24:14;32.80;;;24.63;;
12363;SDS011;6246;50.826;4.712;2023-01-30T03:26:48;31.67;;;24.37;;
12363;SDS011;6246;50.826;4.712;2023-01-30T03:29:14;29.93;;;23.73;;
12363;SDS011;6246;50.826;4.712;2023-01-30T03:31:41;29.13;;;24.10;;
12363;SDS011;6246;50.826;4.712;2023-01-30T03:34:07;31.60;;;24.00;;
12363;SDS011;6246;50.826;4.712;2023-01-30T03:36:33;30.00;;;23.80;;
12363;SDS011;6246;50.826;4.712;2023-01-30T03:38:59;28.07;;;22.57;;
12363;SDS011;6246;50.826;4.712;2023-01-30T03:41:25;26.67;;;21.73;;
12363;SDS011;6246;50.826;4.712;2023-01-30T03:43:51;28.27;;;23.30;;
12363;SDS011;6246;50.826;4.712;2023-01-30T03:46:17;25.90;;;22.03;;
12363;SDS011;6246;50.826;4.712;2023-01-30T03:48:43;26.97;;;22.23;;
12363;SDS011;6246;50.826;4.712;2023-01-30T03:51:09;27.97;;;21.90;;
12363;SDS011;6246;50.826;4.712;2023-01-30T03:53:35;27.50;;;21.70;;
12363;SDS011;6246;50.826;4.712;2023-01-30T03:56:01;26.93;;;21.53;;
12363;SDS011;6246;50.826;4.712;2023-01-30T03:58:27;27.83;;;21.43;;
12363;SDS011;6246;50.826;4.712;2023-01-30T04:00:54;27.00;;;20.27;;
12363;SDS011;6246;50.826;4.712;2023-01-30T04:03:21;25.13;;;19.77;;
12363;SDS011;6246;50.826;4.712;2023-01-30T04:05:47;24.47;;;19.83;;
12363;SDS011;6246;50.826;4.712;2023-01-30T04:08:13;24.20;;;19.47;;
12363;SDS011;6246;50.826;4.712;2023-01-30T04:10:39;25.33;;;20.00;;
12363;SDS011;6246;50.826;4.712;2023-01-30T04:13:05;26.07;;;19.83;;
12363;SDS011;6246;50.826;4.712;2023-01-30T04:15:31;24.23;;;18.67;;
12363;SDS011;6246;50.826;4.712;2023-01-30T04:17:57;24.93;;;19.30;;
12363;SDS011;6246;50.826;4.712;2023-01-30T04:20:23;22.70;;;18.10;;
12363;SDS011;6246;50.826;4.712;2023-01-30T04:22:49;23.63;;;18.70;;
12363;SDS011;6246;50.826;4.712;2023-01-30T04:25:15;22.57;;;17.93;;
12363;SDS011;6246;50.826;4.712;2023-01-30T04:27:42;24.23;;;18.87;;
12363;SDS011;6246;50.826;4.712;2023-01-30T04:30:08;22.57;;;18.30;;
12363;SDS011;6246;50.826;4.712;2023-01-30T04:32:34;22.37;;;17.43;;
12363;SDS011;6246;50.826;4.712;2023-01-30T04:35:00;20.57;;;17.40;;
12363;SDS011;6246;50.826;4.712;2023-01-30T04:37:26;20.27;;;15.97;;
12363;SDS011;6246;50.826;4.712;2023-01-30T04:39:53;20.37;;;17.03;;
12363;SDS011;6246;50.826;4.712;2023-01-30T04:42:18;20.80;;;16.30;;
12363;SDS011;6246;50.826;4.712;2023-01-30T04:44:44;22.50;;;17.33;;
12363;SDS011;6246;50.826;4.712;2023-01-30T04:47:10;19.10;;;16.10;;
12363;SDS011;6246;50.826;4.712;2023-01-30T04:49:36;19.57;;;15.77;;
12363;SDS011;6246;50.826;4.712;2023-01-30T04:52:03;22.10;;;15.90;;
12363;SDS011;6246;50.826;4.712;2023-01-30T04:54:29;22.50;;;15.50;;
12363;SDS011;6246;50.826;4.712;2023-01-30T04:56:55;22.00;;;15.60;;
12363;SDS011;6246;50.826;4.712;2023-01-30T04:59:21;21.63;;;15.57;;
12363;SDS011;6246;50.826;4.712;2023-01-30T05:01:47;21.13;;;15.93;;
12363;SDS011;6246;50.826;4.712;2023-01-30T05:04:13;21.50;;;15.20;;
12363;SDS011;6246;50.826;4.712;2023-01-30T05:06:39;21.47;;;15.47;;
12363;SDS011;6246;50.826;4.712;2023-01-30T05:09:05;18.33;;;14.80;;
12363;SDS011;6246;50.826;4.712;2023-01-30T05:11:32;17.53;;;14.30;;
12363;SDS011;6246;50.826;4.712;2023-01-30T05:13:58;18.97;;;14.60;;
12363;SDS011;6246;50.826;4.712;2023-01-30T05:16:24;18.47;;;14.47;;
12363;SDS011;6246;50.826;4.712;2023-01-30T05:18:50;18.77;;;13.80;;
12363;SDS011;6246;50.826;4.712;2023-01-30T05:21:17;18.63;;;13.40;;
12363;SDS011;6246;50.826;4.712;2023-01-30T05:23:44;17.13;;;14.07;;
12363;SDS011;6246;50.826;4.712;2023-01-30T05:26:10;19.00;;;14.17;;
12363;SDS011;6246;50.826;4.712;2023-01-30T05:28:37;17.03;;;13.47;;
12363;SDS011;6246;50.826;4.712;2023-01-30T05:31:04;16.67;;;12.70;;
12363;SDS011;6246;50.826;4.712;2023-01-30T05:33:30;17.23;;;12.37;;
12363;SDS011;6246;50.826;4.712;2023-01-30T05:35:56;17.10;;;12.80;;
12363;SDS011;6246;50.826;4.712;2023-01-30T05:38:23;16.30;;;11.93;;
12363;SDS011;6246;50.826;4.712;2023-01-30T05:41:02;16.33;;;12.17;;
12363;SDS011;6246;50.826;4.712;2023-01-30T05:43:29;15.53;;;12.23;;
12363;SDS011;6246;50.826;4.712;2023-01-30T05:45:56;16.50;;;12.30;;
12363;SDS011;6246;50.826;4.712;2023-01-30T05:48:23;16.73;;;12.03;;
12363;SDS011;6246;50.826;4.712;2023-01-30T05:50:49;15.73;;;11.73;;
12363;SDS011;6246;50.826;4.712;2023-01-30T05:53:16;14.53;;;11.83;;
12363;SDS011;6246;50.826;4.712;2023-01-30T05:55:42;14.47;;;11.37;;
12363;SDS011;6246;50.826;4.712;2023-01-30T05:58:09;16.37;;;11.03;;
12363;SDS011;6246;50.826;4.712;2023-01-30T06:00:35;15.33;;;11.20;;
12363;SDS011;6246;50.826;4.712;2023-01-30T06:03:01;14.07;;;10.70;;
12363;SDS011;6246;50.826;4.712;2023-01-30T06:05:27;13.77;;;10.43;;
12363;SDS011;6246;50.826;4.712;2023-01-30T06:07:53;18.27;;;10.50;;
12363;SDS011;6246;50.826;4.712;2023-01-30T06:10:19;14.60;;;10.83;;
12363;SDS011;6246;50.826;4.712;2023-01-30T06:12:45;18.53;;;10.63;;
12363;SDS011;6246;50.826;4.712;2023-01-30T06:15:11;14.00;;;10.07;;
12363;SDS011;6246;50.826;4.712;2023-01-30T06:17:41;12.27;;;9.37;;
12363;SDS011;6246;50.826;4.712;2023-01-30T06:20:07;12.83;;;10.47;;
12363;SDS011;6246;50.826;4.712;2023-01-30T06:22:33;13.10;;;9.90;;
12363;SDS011;6246;50.826;4.712;2023-01-30T06:24:59;13.00;;;9.23;;
12363;SDS011;6246;50.826;4.712;2023-01-30T06:27:25;12.93;;;9.43;;
12363;SDS011;6246;50.826;4.712;2023-01-30T06:29:51;11.77;;;9.07;;
12363;SDS011;6246;50.826;4.712;2023-01-30T06:32:17;12.00;;;8.70;;
12363;SDS011;6246;50.826;4.712;2023-01-30T06:34:43;14.27;;;9.40;;
12363;SDS011;6246;50.826;4.712;2023-01-30T06:37:09;11.67;;;8.60;;
12363;SDS011;6246;50.826;4.712;2023-01-30T06:39:35;13.63;;;9.03;;
12363;SDS011;6246;50.826;4.712;2023-01-30T06:42:01;14.20;;;9.40;;
12363;SDS011;6246;50.826;4.712;2023-01-30T06:44:27;13.27;;;8.80;;
12363;SDS011;6246;50.826;4.712;2023-01-30T06:46:53;16.00;;;8.93;;
12363;SDS011;6246;50.826;4.712;2023-01-30T06:49:19;15.77;;;8.87;;
12363;SDS011;6246;50.826;4.712;2023-01-30T06:51:45;13.47;;;8.60;;
12363;SDS011;6246;50.826;4.712;2023-01-30T06:54:11;13.77;;;8.53;;
12363;SDS011;6246;50.826;4.712;2023-01-30T06:56:37;13.77;;;8.93;;
12363;SDS011;6246;50.826;4.712;2023-01-30T06:59:03;14.80;;;7.83;;
12363;SDS011;6246;50.826;4.712;2023-01-30T07:01:29;13.03;;;8.43;;
12363;SDS011;6246;50.826;4.712;2023-01-30T07:03:55;12.17;;;7.70;;
12363;SDS011;6246;50.826;4.712;2023-01-30T07:06:21;11.97;;;8.27;;
12363;SDS011;6246;50.826;4.712;2023-01-30T07:08:47;11.77;;;8.00;;
12363;SDS011;6246;50.826;4.712;2023-01-30T07:11:13;11.63;;;7.77;;
12363;SDS011;6246;50.826;4.712;2023-01-30T07:13:39;11.60;;;8.30;;
12363;SDS011;6246;50.826;4.712;2023-01-30T07:16:05;10.17;;;7.70;;
12363;SDS011;6246;50.826;4.712;2023-01-30T07:18:31;9.13;;;7.20;;
12363;SDS011;6246;50.826;4.712;2023-01-30T07:20:57;10.30;;;7.73;;
12363;SDS011;6246;50.826;4.712;2023-01-30T07:23:23;9.73;;;7.27;;
12363;SDS011;6246;50.826;4.712;2023-01-30T07:25:49;12.00;;;7.90;;
12363;SDS011;6246;50.826;4.712;2023-01-30T07:28:15;10.03;;;7.60;;
12363;SDS011;6246;50.826;4.712;2023-01-30T07:30:41;10.00;;;7.73;;
12363;SDS011;6246;50.826;4.712;2023-01-30T07:33:07;9.40;;;6.93;;
12363;SDS011;6246;50.826;4.712;2023-01-30T07:35:34;9.47;;;6.50;;
12363;SDS011;6246;50.826;4.712;2023-01-30T07:38:01;8.63;;;6.70;;
12363;SDS011;6246;50.826;4.712;2023-01-30T07:40:27;10.37;;;7.07;;
12363;SDS011;6246;50.826;4.712;2023-01-30T07:43:00;11.30;;;7.43;;
12363;SDS011;6246;50.826;4.712;2023-01-30T07:45:46;10.17;;;6.80;;
12363;SDS011;6246;50.826;4.712;2023-01-30T07:48:13;11.50;;;6.57;;
12363;SDS011;6246;50.826;4.712;2023-01-30T07:50:39;8.17;;;6.30;;
12363;SDS011;6246;50.826;4.712;2023-01-30T07:53:06;10.00;;;6.43;;
12363;SDS011;6246;50.826;4.712;2023-01-30T07:55:32;11.20;;;6.37;;
12363;SDS011;6246;50.826;4.712;2023-01-30T07:57:59;10.17;;;6.43;;
12363;SDS011;6246;50.826;4.712;2023-01-30T08:00:25;10.23;;;6.63;;
12363;SDS011;6246;50.826;4.712;2023-01-30T08:02:51;8.77;;;6.37;;
12363;SDS011;6246;50.826;4.712;2023-01-30T08:05:17;8.67;;;6.60;;
12363;SDS011;6246;50.826;4.712;2023-01-30T08:07:43;14.63;;;6.53;;
12363;SDS011;6246;50.826;4.712;2023-01-30T08:10:11;7.57;;;5.90;;
12363;SDS011;6246;50.826;4.712;2023-01-30T08:12:38;12.70;;;6.40;;
12363;SDS011;6246;50.826;4.712;2023-01-30T08:15:04;10.70;;;6.63;;
12363;SDS011;6246;50.826;4.712;2023-01-30T08:17:31;6.93;;;5.77;;
12363;SDS011;6246;50.826;4.712;2023-01-30T08:19:56;10.80;;;6.13;;
12363;SDS011;6246;50.826;4.712;2023-01-30T08:22:22;12.00;;;6.00;;
12363;SDS011;6246;50.826;4.712;2023-01-30T08:24:48;9.53;;;5.90;;
12363;SDS011;6246;50.826;4.712;2023-01-30T08:27:14;8.27;;;6.00;;
12363;SDS011;6246;50.826;4.712;2023-01-30T08:29:40;8.30;;;5.73;;
12363;SDS011;6246;50.826;4.712;2023-01-30T08:32:06;11.53;;;5.87;;
12363;SDS011;6246;50.826;4.712;2023-01-30T08:34:32;8.87;;;5.67;;
12363;SDS011;6246;50.826;4.712;2023-01-30T08:36:59;10.23;;;6.00;;
12363;SDS011;6246;50.826;4.712;2023-01-30T08:39:25;6.90;;;5.07;;
12363;SDS011;6246;50.826;4.712;2023-01-30T08:41:51;9.73;;;5.60;;
12363;SDS011;6246;50.826;4.712;2023-01-30T08:44:17;9.27;;;6.17;;
12363;SDS011;6246;50.826;4.712;2023-01-30T08:46:43;11.43;;;5.83;;
12363;SDS011;6246;50.826;4.712;2023-01-30T08:49:09;9.63;;;5.90;;
12363;SDS011;6246;50.826;4.712;2023-01-30T08:51:36;7.10;;;5.20;;
12363;SDS011;6246;50.826;4.712;2023-01-30T08:54:02;9.00;;;5.40;;
12363;SDS011;6246;50.826;4.712;2023-01-30T08:56:28;6.93;;;5.23;;
12363;SDS011;6246;50.826;4.712;2023-01-30T08:58:54;7.07;;;5.10;;
12363;SDS011;6246;50.826;4.712;2023-01-30T09:01:20;5.93;;;4.80;;
12363;SDS011;6246;50.826;4.712;2023-01-30T09:03:46;7.03;;;5.27;;
12363;SDS011;6246;50.826;4.712;2023-01-30T09:06:12;6.23;;;5.03;;
12363;SDS011;6246;50.826;4.712;2023-01-30T09:08:38;9.20;;;4.97;;
12363;SDS011;6246;50.826;4.712;2023-01-30T09:11:04;7.90;;;4.87;;
12363;SDS011;6246;50.826;4.712;2023-01-30T09:13:31;7.40;;;4.80;;
12363;SDS011;6246;50.826;4.712;2023-01-30T09:15:57;10.87;;;5.50;;
12363;SDS011;6246;50.826;4.712;2023-01-30T09:18:23;6.30;;;5.00;;
12363;SDS011;6246;50.826;4.712;2023-01-30T09:20:50;6.83;;;4.73;;
12363;SDS011;6246;50.826;4.712;2023-01-30T09:23:16;7.63;;;4.93;;
12363;SDS011;6246;50.826;4.712;2023-01-30T09:25:45;10.60;;;5.20;;
12363;SDS011;6246;50.826;4.712;2023-01-30T09:28:11;8.13;;;4.77;;
12363;SDS011;6246;50.826;4.712;2023-01-30T09:30:37;5.83;;;4.77;;
12363;SDS011;6246;50.826;4.712;2023-01-30T09:33:03;6.63;;;5.00;;
12363;SDS011;6246;50.826;4.712;2023-01-30T09:35:29;7.57;;;4.70;;
12363;SDS011;6246;50.826;4.712;2023-01-30T09:37:55;6.63;;;5.07;;
12363;SDS011;6246;50.826;4.712;2023-01-30T09:40:24;5.70;;;4.50;;
12363;SDS011;6246;50.826;4.712;2023-01-30T09:45:30;9.13;;;4.67;;
12363;SDS011;6246;50.826;4.712;2023-01-30T09:48:20;7.27;;;4.57;;
12363;SDS011;6246;50.826;4.712;2023-01-30T09:55:45;6.37;;;4.40;;
12363;SDS011;6246;50.826;4.712;2023-01-30T09:58:15;7.60;;;4.57;;
12363;SDS011;6246;50.826;4.712;2023-01-30T10:00:42;7.63;;;4.77;;
12363;SDS011;6246;50.826;4.712;2023-01-30T10:03:12;6.00;;;4.80;;
12363;SDS011;6246;50.826;4.712;2023-01-30T10:05:41;6.90;;;4.43;;
12363;SDS011;6246;50.826;4.712;2023-01-30T10:10:48;9.53;;;4.40;;
12363;SDS011;6246;50.826;4.712;2023-01-30T10:13:27;6.30;;;4.00;;
12363;SDS011;6246;50.826;4.712;2023-01-30T10:20:51;6.13;;;4.00;;
12363;SDS011;6246;50.826;4.712;2023-01-30T10:25:49;4.67;;;3.50;;
12363;SDS011;6246;50.826;4.712;2023-01-30T10:30:54;4.23;;;3.80;;
12363;SDS011;6246;50.826;4.712;2023-01-30T10:33:21;7.07;;;4.00;;
12363;SDS011;6246;50.826;4.712;2023-01-30T10:35:56;5.47;;;4.00;;
12363;SDS011;6246;50.826;4.712;2023-01-30T10:41:25;6.47;;;4.20;;
12363;SDS011;6246;50.826;4.712;2023-01-30T10:43:56;5.40;;;4.33;;
12363;SDS011;6246;50.826;4.712;2023-01-30T10:49:02;4.33;;;3.70;;
12363;SDS011;6246;50.826;4.712;2023-01-30T10:54:02;4.23;;;3.60;;
12363;SDS011;6246;50.826;4.712;2023-01-30T10:56:38;6.10;;;4.13;;
12363;SDS011;6246;50.826;4.712;2023-01-30T11:01:41;7.90;;;3.87;;
12363;SDS011;6246;50.826;4.712;2023-01-30T11:06:53;4.67;;;3.53;;
12363;SDS011;6246;50.826;4.712;2023-01-30T11:09:20;8.70;;;3.43;;
12363;SDS011;6246;50.826;4.712;2023-01-30T11:11:55;5.87;;;3.70;;
12363;SDS011;6246;50.826;4.712;2023-01-30T11:14:21;4.50;;;3.90;;
12363;SDS011;6246;50.826;4.712;2023-01-30T11:16:49;6.10;;;3.93;;
12363;SDS011;6246;50.826;4.712;2023-01-30T11:19:17;5.60;;;3.63;;
12363;SDS011;6246;50.826;4.712;2023-01-30T11:21:46;7.73;;;3.60;;
12363;SDS011;6246;50.826;4.712;2023-01-30T11:24:15;6.93;;;3.60;;
12363;SDS011;6246;50.826;4.712;2023-01-30T11:26:42;6.57;;;3.83;;
12363;SDS011;6246;50.826;4.712;2023-01-30T11:31:40;5.57;;;3.60;;
12363;SDS011;6246;50.826;4.712;2023-01-30T11:34:14;5.97;;;3.77;;
12363;SDS011;6246;50.826;4.712;2023-01-30T11:36:40;11.17;;;4.20;;
12363;SDS011;6246;50.826;4.712;2023-01-30T11:41:44;7.43;;;3.80;;
12363;SDS011;6246;50.826;4.712;2023-01-30T11:44:27;30.23;;;5.40;;
12363;SDS011;6246;50.826;4.712;2023-01-30T11:46:57;14.23;;;4.77;;
12363;SDS011;6246;50.826;4.712;2023-01-30T11:49:23;12.73;;;4.50;;
12363;SDS011;6246;50.826;4.712;2023-01-30T11:51:53;8.03;;;4.10;;
12363;SDS011;6246;50.826;4.712;2023-01-30T11:54:26;11.00;;;4.27;;
12363;SDS011;6246;50.826;4.712;2023-01-30T11:56:56;10.40;;;4.00;;
12363;SDS011;6246;50.826;4.712;2023-01-30T12:04:55;7.23;;;4.00;;
12363;SDS011;6246;50.826;4.712;2023-01-30T12:07:25;8.47;;;4.30;;
12363;SDS011;6246;50.826;4.712;2023-01-30T12:09:51;7.13;;;4.00;;
12363;SDS011;6246;50.826;4.712;2023-01-30T12:12:34;6.10;;;3.67;;
12363;SDS011;6246;50.826;4.712;2023-01-30T12:17:44;5.77;;;3.73;;
12363;SDS011;6246;50.826;4.712;2023-01-30T12:23:02;10.77;;;5.57;;
12363;SDS011;6246;50.826;4.712;2023-01-30T12:25:54;13.90;;;5.67;;
12363;SDS011;6246;50.826;4.712;2023-01-30T12:28:33;15.20;;;8.10;;
12363;SDS011;6246;50.826;4.712;2023-01-30T12:31:07;13.83;;;8.10;;
12363;SDS011;6246;50.826;4.712;2023-01-30T12:33:35;15.60;;;9.87;;
12363;SDS011;6246;50.826;4.712;2023-01-30T12:36:09;13.97;;;8.07;;
12363;SDS011;6246;50.826;4.712;2023-01-30T12:46:45;17.17;;;10.27;;
12363;SDS011;6246;50.826;4.712;2023-01-30T12:55:04;16.30;;;11.63;;
12363;SDS011;6246;50.826;4.712;2023-01-30T13:05:25;20.13;;;13.67;;
12363;SDS011;6246;50.826;4.712;2023-01-30T13:08:06;19.87;;;13.77;;
12363;SDS011;6246;50.826;4.712;2023-01-30T13:15:34;21.63;;;12.40;;
12363;SDS011;6246;50.826;4.712;2023-01-30T13:18:05;20.30;;;13.63;;
12363;SDS011;6246;50.826;4.712;2023-01-30T13:20:43;18.90;;;13.60;;
12363;SDS011;6246;50.826;4.712;2023-01-30T13:23:23;18.67;;;12.90;;
12363;SDS011;6246;50.826;4.712;2023-01-30T13:28:28;20.00;;;14.17;;
12363;SDS011;6246;50.826;4.712;2023-01-30T13:30:56;17.20;;;13.20;;
12363;SDS011;6246;50.826;4.712;2023-01-30T13:33:27;20.87;;;13.50;;
12363;SDS011;6246;50.826;4.712;2023-01-30T13:36:00;19.53;;;13.93;;
12363;SDS011;6246;50.826;4.712;2023-01-30T13:38:27;19.30;;;13.83;;
12363;SDS011;6246;50.826;4.712;2023-01-30T13:40:54;20.30;;;12.77;;
12363;SDS011;6246;50.826;4.712;2023-01-30T13:43:25;17.10;;;13.37;;
12363;SDS011;6246;50.826;4.712;2023-01-30T13:45:53;17.20;;;12.83;;
12363;SDS011;6246;50.826;4.712;2023-01-30T14:01:13;22.70;;;12.73;;
12363;SDS011;6246;50.826;4.712;2023-01-30T14:03:40;24.30;;;13.57;;
12363;SDS011;6246;50.826;4.712;2023-01-30T14:06:10;21.53;;;13.43;;
12363;SDS011;6246;50.826;4.712;2023-01-30T14:08:39;17.57;;;13.33;;
12363;SDS011;6246;50.826;4.712;2023-01-30T14:16:39;19.17;;;13.10;;
12363;SDS011;6246;50.826;4.712;2023-01-30T14:21:54;19.20;;;12.90;;
12363;SDS011;6246;50.826;4.712;2023-01-30T14:24:21;18.13;;;11.90;;
12363;SDS011;6246;50.826;4.712;2023-01-30T14:31:59;17.80;;;12.77;;
12363;SDS011;6246;50.826;4.712;2023-01-30T14:34:38;17.10;;;12.83;;
12363;SDS011;6246;50.826;4.712;2023-01-30T14:39:50;20.17;;;14.23;;
12363;SDS011;6246;50.826;4.712;2023-01-30T14:42:26;18.47;;;13.80;;
12363;SDS011;6246;50.826;4.712;2023-01-30T14:45:54;31.53;;;15.10;;
12363;SDS011;6246;50.826;4.712;2023-01-30T14:48:00;28.97;;;16.23;;
12363;SDS011;6246;50.826;4.712;2023-01-30T14:50:35;27.77;;;15.53;;
12363;SDS011;6246;50.826;4.712;2023-01-30T14:53:02;27.93;;;16.20;;
12363;SDS011;6246;50.826;4.712;2023-01-30T14:55:28;23.87;;;16.20;;
12363;SDS011;6246;50.826;4.712;2023-01-30T14:57:56;23.73;;;16.50;;
12363;SDS011;6246;50.826;4.712;2023-01-30T15:00:25;24.57;;;16.40;;
12363;SDS011;6246;50.826;4.712;2023-01-30T15:02:54;28.63;;;17.40;;
12363;SDS011;6246;50.826;4.712;2023-01-30T15:05:41;23.33;;;16.40;;
12363;SDS011;6246;50.826;4.712;2023-01-30T15:08:12;23.73;;;17.50;;
12363;SDS011;6246;50.826;4.712;2023-01-30T15:16:03;32.07;;;17.93;;
12363;SDS011;6246;50.826;4.712;2023-01-30T15:21:15;23.43;;;16.93;;
12363;SDS011;6246;50.826;4.712;2023-01-30T15:26:22;22.67;;;16.97;;
12363;SDS011;6246;50.826;4.712;2023-01-30T15:31:25;25.93;;;17.10;;
12363;SDS011;6246;50.826;4.712;2023-01-30T15:33:53;23.63;;;16.83;;
12363;SDS011;6246;50.826;4.712;2023-01-30T15:36:33;22.60;;;17.37;;
12363;SDS011;6246;50.826;4.712;2023-01-30T15:39:01;22.23;;;16.57;;
12363;SDS011;6246;50.826;4.712;2023-01-30T15:41:32;24.07;;;17.90;;
12363;SDS011;6246;50.826;4.712;2023-01-30T15:46:41;24.13;;;16.97;;
12363;SDS011;6246;50.826;4.712;2023-01-30T15:49:14;21.43;;;17.07;;
12363;SDS011;6246;50.826;4.712;2023-01-30T15:51:44;22.07;;;16.37;;
12363;SDS011;6246;50.826;4.712;2023-01-30T15:54:13;21.03;;;16.00;;
12363;SDS011;6246;50.826;4.712;2023-01-30T15:56:41;22.70;;;16.37;;
12363;SDS011;6246;50.826;4.712;2023-01-30T15:59:11;24.57;;;16.53;;
12363;SDS011;6246;50.826;4.712;2023-01-30T16:01:42;21.77;;;17.27;;
12363;SDS011;6246;50.826;4.712;2023-01-30T16:04:24;20.67;;;16.10;;
12363;SDS011;6246;50.826;4.712;2023-01-30T16:06:50;21.93;;;16.40;;
12363;SDS011;6246;50.826;4.712;2023-01-30T16:09:21;25.50;;;15.97;;
12363;SDS011;6246;50.826;4.712;2023-01-30T16:11:47;23.13;;;16.80;;
12363;SDS011;6246;50.826;4.712;2023-01-30T16:14:15;20.83;;;15.53;;
12363;SDS011;6246;50.826;4.712;2023-01-30T16:19:15;22.73;;;15.50;;
12363;SDS011;6246;50.826;4.712;2023-01-30T16:21:43;20.53;;;14.70;;
12363;SDS011;6246;50.826;4.712;2023-01-30T16:26:39;19.77;;;15.30;;
12363;SDS011;6246;50.826;4.712;2023-01-30T16:29:06;20.43;;;15.63;;
12363;SDS011;6246;50.826;4.712;2023-01-30T16:31:34;18.37;;;14.43;;
12363;SDS011;6246;50.826;4.712;2023-01-30T16:34:02;19.03;;;14.30;;
12363;SDS011;6246;50.826;4.712;2023-01-30T16:36:29;20.93;;;15.13;;
12363;SDS011;6246;50.826;4.712;2023-01-30T16:38:57;21.43;;;14.97;;
12363;SDS011;6246;50.826;4.712;2023-01-30T16:46:55;20.47;;;13.50;;
12363;SDS011;6246;50.826;4.712;2023-01-30T16:54:27;20.63;;;14.27;;
12363;SDS011;6246;50.826;4.712;2023-01-30T16:56:54;19.07;;;13.90;;
12363;SDS011;6246;50.826;4.712;2023-01-30T16:59:32;18.60;;;13.37;;
12363;SDS011;6246;50.826;4.712;2023-01-30T17:01:59;19.07;;;13.67;;
12363;SDS011;6246;50.826;4.712;2023-01-30T17:04:27;18.77;;;12.77;;
12363;SDS011;6246;50.826;4.712;2023-01-30T17:06:57;21.53;;;14.27;;
12363;SDS011;6246;50.826;4.712;2023-01-30T17:09:30;20.17;;;13.37;;
12363;SDS011;6246;50.826;4.712;2023-01-30T17:11:58;16.23;;;12.40;;
12363;SDS011;6246;50.826;4.712;2023-01-30T17:14:25;17.10;;;12.80;;
12363;SDS011;6246;50.826;4.712;2023-01-30T17:17:04;17.07;;;12.60;;
12363;SDS011;6246;50.826;4.712;2023-01-30T17:19:36;16.33;;;12.17;;
12363;SDS011;6246;50.826;4.712;2023-01-30T17:22:03;16.90;;;12.23;;
12363;SDS011;6246;50.826;4.712;2023-01-30T17:24:30;15.47;;;11.73;;
12363;SDS011;6246;50.826;4.712;2023-01-30T17:26:59;16.63;;;12.10;;
12363;SDS011;6246;50.826;4.712;2023-01-30T17:29:27;15.53;;;12.27;;
12363;SDS011;6246;50.826;4.712;2023-01-30T17:31:54;17.37;;;11.53;;
12363;SDS011;6246;50.826;4.712;2023-01-30T17:34:20;16.80;;;11.83;;